Time;durP1;ratioP1;P1;durP2;ratioP2;P2;SDS_P1;SDS_P2;PMS_P1;PMS_P2;Temp;Humidity;BMP_temperature;BMP_pressure;BME280_temperature;BME280_humidity;BME280_pressure;Samples;Min_cycle;Max_cycle;Signal;HPM_P1;HPM_P2
2023/07/12 00:02:08;;;;;;;6.80;6.10;;;;;;;23.48;47.01;100228.66;4892737;29;20808;-68
2023/07/12 00:04:39;;;;;;;8.03;6.40;;;;;;;23.47;46.93;100229.81;4888691;29;20449;-68
2023/07/12 00:07:13;;;;;;;7.47;6.80;;;;;;;23.39;47.32;100230.47;4897522;29;20779;-68
2023/07/12 00:09:42;;;;;;;6.27;5.67;;;;;;;23.27;47.61;100230.94;4889633;29;20470;-68
2023/07/12 00:12:11;;;;;;;11.57;6.37;;;;;;;23.33;47.49;100231.69;4887491;29;20431;-68
2023/07/12 00:14:40;;;;;;;7.90;6.33;;;;;;;23.28;47.58;100231.78;4888028;29;20932;-68
2023/07/12 00:17:11;;;;;;;6.77;6.17;;;;;;;23.24;47.96;100236.22;4884999;29;20875;-68
2023/07/12 00:19:42;;;;;;;8.90;6.13;;;;;;;23.38;47.83;100232.38;4891491;29;20795;-68
2023/07/12 00:22:12;;;;;;;10.87;7.57;;;;;;;23.34;47.71;100228.59;4888830;29;20465;-69
2023/07/12 00:24:41;;;;;;;6.50;5.90;;;;;;;23.36;47.86;100220.84;4893990;29;20445;-67
2023/07/12 00:27:10;;;;;;;8.57;7.53;;;;;;;23.25;48.23;100210.28;4899694;29;21035;-67
2023/07/12 00:29:39;;;;;;;7.60;6.90;;;;;;;23.24;48.04;100214.97;4889766;29;20464;-68
2023/07/12 00:32:09;;;;;;;7.90;7.00;;;;;;;23.16;48.63;100209.34;4884937;29;20442;-69
2023/07/12 00:34:38;;;;;;;8.17;7.10;;;;;;;23.20;48.10;100207.59;4895462;29;21042;-69
2023/07/12 00:37:14;;;;;;;8.20;7.40;;;;;;;23.18;48.64;100201.59;4894121;29;20904;-68
2023/07/12 00:39:44;;;;;;;7.87;7.07;;;;;;;23.18;48.57;100209.88;4890305;29;20431;-68
2023/07/12 00:42:21;;;;;;;6.80;6.17;;;;;;;23.15;48.43;100199.41;4887808;29;20448;-68
2023/07/12 00:44:57;;;;;;;8.60;7.27;;;;;;;23.08;48.95;100188.78;4883053;29;20429;-68
2023/07/12 00:47:26;;;;;;;7.77;7.03;;;;;;;23.08;48.92;100180.50;4882461;29;20440;-69
2023/07/12 00:49:55;;;;;;;8.17;7.33;;;;;;;23.12;48.74;100167.72;4893103;29;20609;-68
2023/07/12 00:52:26;;;;;;;9.70;7.50;;;;;;;23.10;49.04;100158.09;4892887;29;20431;-69
2023/07/12 00:54:58;;;;;;;7.97;7.27;;;;;;;23.12;49.12;100144.84;4892551;29;20416;-68
2023/07/12 00:57:29;;;;;;;8.33;7.50;;;;;;;23.05;49.10;100145.22;4879227;29;21005;-68
2023/07/12 01:00:02;;;;;;;7.47;6.73;;;;;;;22.99;49.29;100134.59;4891961;29;20478;-68
2023/07/12 01:02:33;;;;;;;7.70;7.00;;;;;;;23.02;49.05;100129.28;4889115;29;20439;-67
2023/07/12 01:05:04;;;;;;;8.37;7.67;;;;;;;23.09;49.34;100117.84;4884250;29;20461;-68
2023/07/12 01:07:34;;;;;;;7.90;7.20;;;;;;;22.91;49.86;100109.31;4886253;29;20460;-69
2023/07/12 01:10:04;;;;;;;9.00;7.93;;;;;;;22.85;50.09;100102.25;4887330;29;20800;-69
2023/07/12 01:12:33;;;;;;;7.90;7.20;;;;;;;22.88;49.92;100095.31;4890261;29;20454;-68
2023/07/12 01:15:03;;;;;;;8.30;7.20;;;;;;;22.85;50.01;100093.19;4884749;29;20521;-68
2023/07/12 01:17:36;;;;;;;7.90;7.20;;;;;;;22.85;50.04;100085.69;4881586;29;20466;-68
2023/07/12 01:20:07;;;;;;;11.40;6.90;;;;;;;22.94;49.95;100078.38;4886545;29;20421;-67
2023/07/12 01:22:38;;;;;;;10.60;6.80;;;;;;;22.87;50.16;100077.94;4891835;29;20424;-67
2023/07/12 01:25:08;;;;;;;15.13;7.30;;;;;;;22.92;50.19;100075.09;4887741;29;20418;-69
2023/07/12 01:27:37;;;;;;;7.50;6.67;;;;;;;22.92;50.00;100074.28;4889866;29;20930;-68
2023/07/12 01:30:09;;;;;;;8.63;7.70;;;;;;;22.93;50.11;100070.41;4882722;29;20449;-68
2023/07/12 01:32:40;;;;;;;7.77;6.60;;;;;;;22.94;49.97;100067.34;4883491;29;20434;-68
2023/07/12 01:35:13;;;;;;;7.30;6.70;;;;;;;;;;4890214;29;20426;-68
2023/07/12 01:37:43;;;;;;;8.50;7.60;;;;;;;22.81;50.66;100051.56;4882411;29;20500;-69
2023/07/12 01:40:13;;;;;;;9.60;8.70;;;;;;;22.75;50.81;100047.25;4881098;29;20464;-69
2023/07/12 01:42:43;;;;;;;8.97;8.07;;;;;;;22.77;50.70;100044.19;4890741;29;20433;-68
2023/07/12 01:45:13;;;;;;;7.90;7.10;;;;;;;22.79;50.53;100031.75;4889250;29;20401;-68
2023/07/12 01:47:44;;;;;;;7.43;6.57;;;;;;;22.78;50.88;100030.13;4934811;23;20561;-83
2023/07/12 01:50:13;;;;;;;8.23;6.83;;;;;;;22.80;50.72;100027.84;4947234;29;20450;-83
2023/07/12 01:52:43;;;;;;;10.67;8.27;;;;;;;22.76;51.04;100026.00;4951585;29;20480;-84
2023/07/12 01:55:13;;;;;;;7.47;6.77;;;;;;;22.80;50.80;100016.03;4943816;28;20433;-84
2023/07/12 01:57:42;;;;;;;10.53;7.33;;;;;;;22.79;50.84;100014.38;4951286;28;20420;-85
2023/07/12 02:00:12;;;;;;;8.77;7.90;;;;;;;22.76;51.26;100010.28;4938813;28;20446;-84
2023/07/12 02:02:44;;;;;;;10.07;7.83;;;;;;;22.71;50.90;100001.28;4941069;28;20417;-83
2023/07/12 02:05:15;;;;;;;9.90;7.57;;;;;;;22.70;51.41;99994.97;4940908;28;20405;-85
2023/07/12 02:07:47;;;;;;;8.87;7.30;;;;;;;22.84;51.02;99995.81;4941611;28;20487;-85
2023/07/12 02:10:19;;;;;;;7.93;7.13;;;;;;;22.73;51.24;99976.97;4935070;29;20536;-83
2023/07/12 02:12:49;;;;;;;9.97;7.20;;;;;;;22.65;51.31;99974.91;4946169;29;20442;-83
2023/07/12 02:15:19;;;;;;;9.20;7.63;;;;;;;22.63;51.50;99966.94;4936846;28;20396;-84
2023/07/12 02:17:48;;;;;;;7.57;6.87;;;;;;;22.56;51.68;99951.91;4939623;28;20456;-84
2023/07/12 02:20:17;;;;;;;8.40;7.70;;;;;;;22.54;51.82;99941.19;4942566;28;20445;-84
2023/07/12 02:22:50;;;;;;;8.90;8.10;;;;;;;22.61;51.55;99940.81;4938359;29;20400;-84
2023/07/12 02:25:20;;;;;;;10.00;8.13;;;;;;;22.53;52.02;99940.38;4936911;29;20432;-84
2023/07/12 02:27:50;;;;;;;8.23;7.53;;;;;;;22.47;52.18;99944.34;4937778;28;20491;-83
2023/07/12 02:30:22;;;;;;;7.20;6.53;;;;;;;22.50;52.33;99948.44;4938541;28;20468;-84
2023/07/12 02:32:51;;;;;;;10.00;7.17;;;;;;;22.44;52.29;99952.41;4938628;28;20442;-83
2023/07/12 02:35:27;;;;;;;8.00;7.20;;;;;;;22.39;52.28;99947.78;4938865;29;20422;-83
2023/07/12 02:37:58;;;;;;;12.03;6.93;;;;;;;22.36;52.82;99944.84;4938416;28;20448;-84
2023/07/12 02:40:28;;;;;;;10.30;7.90;;;;;;;22.49;52.25;99939.34;4939988;28;20409;-84
2023/07/12 02:42:57;;;;;;;7.93;6.97;;;;;;;22.49;52.53;99941.28;4937558;28;20436;-85
2023/07/12 02:45:26;;;;;;;8.00;7.30;;;;;;;22.41;52.77;99931.75;4934653;29;20422;-84
2023/07/12 02:47:55;;;;;;;9.20;8.40;;;;;;;22.57;52.37;99925.97;4930796;29;20479;-83
2023/07/12 02:50:24;;;;;;;9.33;8.47;;;;;;;22.62;52.13;99921.19;4931130;29;20414;-83
2023/07/12 02:52:57;;;;;;;7.97;7.27;;;;;;;22.61;52.33;99921.50;4925279;29;20420;-84
2023/07/12 02:55:26;;;;;;;11.33;8.23;;;;;;;22.59;52.27;99913.53;4923907;29;20419;-84
2023/07/12 02:57:55;;;;;;;8.87;8.07;;;;;;;22.62;52.48;99915.66;4920276;29;20435;-83
2023/07/12 03:00:24;;;;;;;8.93;8.00;;;;;;;22.58;52.58;99911.88;4920817;29;20973;-83
2023/07/12 03:02:53;;;;;;;8.90;8.10;;;;;;;22.49;53.35;99917.28;4922306;29;20511;-83
2023/07/12 03:05:22;;;;;;;8.90;8.10;;;;;;;22.66;52.58;99922.19;4921268;29;20449;-84
2023/07/12 03:07:52;;;;;;;8.53;7.67;;;;;;;22.63;52.75;99936.59;4938386;29;20476;-84
2023/07/12 03:10:23;;;;;;;11.53;8.43;;;;;;;22.68;53.01;99952.22;4921398;29;20412;-83
2023/07/12 03:12:54;;;;;;;9.23;7.90;;;;;;;22.70;52.62;99950.84;4921616;29;20551;-83
2023/07/12 03:15:23;;;;;;;10.60;9.43;;;;;;;22.60;53.21;99934.47;4929662;29;20441;-84
2023/07/12 03:17:52;;;;;;;9.50;8.57;;;;;;;22.54;53.43;99954.97;4934446;29;20465;-85
2023/07/12 03:20:21;;;;;;;9.00;8.20;;;;;;;22.56;53.58;99943.66;4933534;29;20423;-85
2023/07/12 03:22:50;;;;;;;10.73;9.63;;;;;;;22.54;53.89;99941.19;4924548;29;20450;-83
2023/07/12 03:25:19;;;;;;;8.60;7.83;;;;;;;22.62;53.86;99943.22;4925913;29;20536;-83
2023/07/12 03:27:50;;;;;;;9.57;8.67;;;;;;;22.89;53.34;99959.03;4922603;29;20461;-83
2023/07/12 03:30:19;;;;;;;10.57;9.40;;;;;;;22.76;53.90;99927.53;4922266;29;20443;-84
2023/07/12 03:32:48;;;;;;;10.10;9.10;;;;;;;22.87;53.81;99945.53;4936383;29;20439;-83
2023/07/12 03:35:17;;;;;;;11.40;9.43;;;;;;;22.78;54.00;99941.84;4937255;29;20925;-83
2023/07/12 03:37:46;;;;;;;10.50;9.50;;;;;;;22.93;53.84;99937.97;4927607;29;20443;-83
2023/07/12 03:40:15;;;;;;;12.63;10.33;;;;;;;22.88;54.02;99930.63;4935879;29;20442;-84
2023/07/12 03:42:47;;;;;;;10.73;9.63;;;;;;;22.97;53.78;99922.44;4936850;29;20408;-84
2023/07/12 03:45:17;;;;;;;10.93;10.03;;;;;;;22.86;54.23;99929.28;4934233;29;20424;-81
2023/07/12 03:47:47;;;;;;;10.20;9.13;;;;;;;22.92;54.22;99931.63;4932731;29;20550;-84
2023/07/12 03:50:16;;;;;;;15.20;10.00;;;;;;;22.88;54.57;99933.38;4934661;29;20423;-83
2023/07/12 03:52:45;;;;;;;12.97;10.27;;;;;;;23.09;54.34;99927.44;4950016;29;20475;-84
2023/07/12 03:55:14;;;;;;;10.67;9.60;;;;;;;23.17;53.87;99927.53;4934563;29;20412;-83
2023/07/12 03:57:43;;;;;;;10.80;9.47;;;;;;;23.15;54.07;99923.44;4940523;29;20450;-83
2023/07/12 04:00:13;;;;;;;10.63;9.67;;;;;;;23.16;54.01;99925.06;4922449;29;20463;-83
2023/07/12 04:02:45;;;;;;;15.23;10.20;;;;;;;23.22;54.09;99934.88;4924828;29;20434;-84
2023/07/12 04:05:14;;;;;;;11.80;10.70;;;;;;;23.22;54.16;99923.84;4925330;29;20438;-83
2023/07/12 04:07:43;;;;;;;12.27;11.10;;;;;;;23.39;54.12;99929.53;4928416;29;20458;-83
2023/07/12 04:10:12;;;;;;;13.00;11.90;;;;;;;23.44;53.54;99932.19;4930952;29;20428;-83
2023/07/12 04:12:41;;;;;;;12.70;11.50;;;;;;;23.47;53.50;99916.97;4924963;29;20965;-84
2023/07/12 04:15:11;;;;;;;12.80;11.60;;;;;;;23.45;53.79;99910.94;4928328;29;20440;-84
2023/07/12 04:17:40;;;;;;;11.50;9.80;;;;;;;23.55;53.62;99907.94;4928065;29;20499;-82
2023/07/12 04:20:11;;;;;;;11.03;9.93;;;;;;;23.63;53.40;99919.06;4937828;29;20469;-85
2023/07/12 04:22:40;;;;;;;11.43;10.17;;;;;;;23.68;53.26;99907.91;4935749;29;20441;-84
2023/07/12 04:25:11;;;;;;;15.00;13.47;;;;;;;23.80;53.16;99910.94;4922063;29;20404;-84
2023/07/12 04:27:40;;;;;;;11.30;10.10;;;;;;;23.81;53.11;99909.81;4923344;29;20960;-84
2023/07/12 04:30:12;;;;;;;13.07;11.37;;;;;;;23.77;53.30;99908.78;4926701;29;20497;-84
2023/07/12 04:32:41;;;;;;;12.60;11.30;;;;;;;23.89;53.05;99912.94;4922122;29;20455;-83
2023/07/12 04:35:11;;;;;;;11.70;10.60;;;;;;;23.99;53.06;99915.44;4928311;29;20499;-82
2023/07/12 04:37:46;;;;;;;12.17;10.80;;;;;;;23.95;53.50;99903.38;4918967;29;20481;-84
2023/07/12 04:40:16;;;;;;;13.53;12.37;;;;;;;23.91;53.53;99911.50;4931987;29;20433;-83
2023/07/12 04:42:46;;;;;;;13.87;11.97;;;;;;;24.06;53.07;99919.38;4924558;29;20408;-82
2023/07/12 04:45:15;;;;;;;13.43;12.23;;;;;;;24.03;53.16;99917.25;4921625;29;20416;-83
2023/07/12 04:47:44;;;;;;;12.77;11.57;;;;;;;24.08;53.15;99911.59;4933137;28;20440;-84
2023/07/12 04:50:15;;;;;;;13.87;12.40;;;;;;;24.14;53.20;99923.34;4938124;29;20442;-84
2023/07/12 04:52:44;;;;;;;16.53;12.57;;;;;;;24.32;52.61;99919.59;4935775;28;20496;-85
2023/07/12 04:55:23;;;;;;;13.43;12.17;;;;;;;24.48;52.57;99940.19;4933055;29;20416;-83
2023/07/12 04:57:52;;;;;;;12.60;11.30;;;;;;;24.47;52.69;99937.72;4937319;29;20456;-83
2023/07/12 05:00:23;;;;;;;13.23;11.73;;;;;;;24.46;52.82;99939.66;4932666;28;20412;-82
2023/07/12 05:02:53;;;;;;;14.63;13.23;;;;;;;24.53;52.75;99948.34;4928320;29;20425;-82
2023/07/12 05:05:24;;;;;;;14.63;12.77;;;;;;;24.61;52.80;99953.09;4940666;29;20448;-84
2023/07/12 05:07:53;;;;;;;17.47;15.63;;;;;;;24.74;52.50;99958.84;4927055;29;20532;-84
2023/07/12 05:10:23;;;;;;;14.53;13.23;;;;;;;24.80;52.31;99960.34;4932837;28;20497;-84
2023/07/12 05:12:52;;;;;;;14.97;13.47;;;;;;;24.78;52.47;99952.38;4926999;29;20992;-85
2023/07/12 05:15:21;;;;;;;14.37;12.97;;;;;;;25.00;51.89;99955.06;4944100;29;20970;-84
2023/07/12 05:17:50;;;;;;;13.40;12.20;;;;;;;25.13;52.12;99966.34;4932884;29;20867;-84
2023/07/12 05:20:21;;;;;;;13.83;12.63;;;;;;;25.15;52.32;99959.34;4930754;29;20438;-82
2023/07/12 05:22:53;;;;;;;15.70;13.53;;;;;;;25.17;52.42;99954.34;4941859;28;20436;-84
2023/07/12 05:25:22;;;;;;;15.67;14.07;;;;;;;25.11;52.29;99955.59;4939644;29;20433;-83
2023/07/12 05:27:52;;;;;;;13.80;12.40;;;;;;;25.11;52.33;99963.91;4935315;28;20473;-83
2023/07/12 05:30:21;;;;;;;13.50;12.13;;;;;;;25.18;52.39;99947.63;4938977;29;20434;-82
2023/07/12 05:32:50;;;;;;;16.20;13.97;;;;;;;25.08;52.79;99950.69;4937764;28;20477;-86
2023/07/12 05:35:19;;;;;;;15.90;14.50;;;;;;;25.03;53.01;99959.97;4939757;28;20463;-84
2023/07/12 05:37:51;;;;;;;13.83;12.47;;;;;;;25.12;53.23;99967.50;4937502;29;20446;-84
2023/07/12 05:40:20;;;;;;;16.73;14.93;;;;;;;25.09;52.92;99968.94;4943960;29;20449;-83
2023/07/12 05:42:52;;;;;;;19.37;15.57;;;;;;;25.25;53.22;99967.38;4932734;29;20461;-85
2023/07/12 05:45:21;;;;;;;15.23;13.93;;;;;;;25.28;53.26;99972.25;4933666;28;20434;-84
2023/07/12 05:47:50;;;;;;;17.07;15.27;;;;;;;25.38;53.03;99980.25;4939533;28;20468;-87
2023/07/12 05:50:22;;;;;;;13.80;12.40;;;;;;;25.51;53.16;99990.38;4935425;29;20426;-85
2023/07/12 05:52:53;;;;;;;17.67;15.90;;;;;;;25.47;53.38;99997.72;4916536;29;20505;-85
2023/07/12 05:55:22;;;;;;;17.53;15.73;;;;;;;25.35;53.87;99993.94;4929536;29;20430;-86
2023/07/12 05:57:51;;;;;;;17.70;15.90;;;;;;;25.38;53.92;100005.19;4920864;29;20443;-86
2023/07/12 06:00:21;;;;;;;15.33;13.97;;;;;;;25.34;54.00;100011.69;4920349;29;20441;-83
2023/07/12 06:02:50;;;;;;;16.13;14.43;;;;;;;25.41;53.73;100007.34;4918149;29;20430;-84
2023/07/12 06:05:19;;;;;;;18.87;15.20;;;;;;;25.37;54.16;100014.63;4937365;29;20531;-86
2023/07/12 06:07:52;;;;;;;17.80;15.13;;;;;;;25.40;54.21;100022.31;4921475;29;20442;-86
2023/07/12 06:10:21;;;;;;;18.93;15.00;;;;;;;25.43;54.31;100016.13;4923326;29;20411;-85
2023/07/12 06:12:53;;;;;;;15.63;14.03;;;;;;;25.55;54.20;100014.72;4927289;29;20444;-88
2023/07/12 06:15:23;;;;;;;15.47;14.07;;;;;;;25.47;54.89;100014.31;4920688;29;20898;-83
2023/07/12 06:17:53;;;;;;;17.63;14.93;;;;;;;25.47;55.29;100028.19;4922796;29;20467;-84
2023/07/12 06:20:26;;;;;;;16.53;14.40;;;;;;;25.45;55.35;100032.41;4919998;29;20835;-84
2023/07/12 06:22:57;;;;;;;15.87;14.03;;;;;;;25.45;55.82;100033.25;4920919;29;20452;-82
2023/07/12 06:25:27;;;;;;;15.73;14.07;;;;;;;25.44;56.08;100028.00;4933611;29;20456;-85
2023/07/12 06:27:56;;;;;;;14.53;13.23;;;;;;;25.51;56.19;100037.47;4924693;29;20529;-83
2023/07/12 06:30:25;;;;;;;14.83;13.53;;;;;;;25.52;56.47;100036.34;4931974;29;20922;-82
2023/07/12 06:32:55;;;;;;;14.20;12.83;;;;;;;25.71;56.33;100032.50;4930003;29;20476;-84
2023/07/12 06:35:24;;;;;;;18.77;13.90;;;;;;;26.04;55.63;100030.91;4935463;29;20480;-81
2023/07/12 06:37:54;;;;;;;15.20;13.73;;;;;;;26.56;54.52;100036.47;4935412;29;20498;-81
2023/07/12 06:40:25;;;;;;;15.20;13.70;;;;;;;26.99;53.40;100039.16;4924906;29;20448;-81
2023/07/12 06:42:54;;;;;;;14.80;13.27;;;;;;;27.20;53.29;100046.44;4924625;29;21026;-81
2023/07/12 06:45:23;;;;;;;15.30;12.50;;;;;;;27.56;52.74;100037.59;4927560;29;20444;-81
2023/07/12 06:47:53;;;;;;;12.93;11.40;;;;;;;27.63;53.05;100037.09;4925607;29;20489;-80
2023/07/12 06:50:23;;;;;;;15.17;13.67;;;;;;;27.74;52.70;100043.84;4927988;29;20457;-81
2023/07/12 06:52:52;;;;;;;18.00;16.17;;;;;;;28.26;51.19;100043.50;4937726;29;21008;-81
2023/07/12 06:55:21;;;;;;;15.17;13.70;;;;;;;28.76;50.66;100046.97;4940761;29;20755;-83
2023/07/12 06:57:51;;;;;;;16.93;11.90;;;;;;;28.72;50.39;100051.59;4926336;29;20484;-81
2023/07/12 07:00:21;;;;;;;15.50;13.00;;;;;;;28.82;50.26;100053.13;4929951;29;20509;-81
2023/07/12 07:02:50;;;;;;;12.00;10.80;;;;;;;28.84;50.34;100068.34;4934634;29;20512;-81
2023/07/12 07:05:19;;;;;;;15.40;13.90;;;;;;;29.09;50.51;100068.41;4926968;29;20456;-80
2023/07/12 07:07:48;;;;;;;16.43;11.20;;;;;;;28.89;50.81;100084.03;4924172;29;20496;-81
2023/07/12 07:10:18;;;;;;;15.77;13.80;;;;;;;27.77;52.34;100081.31;4917917;29;20496;-83
2023/07/12 07:12:47;;;;;;;12.60;10.93;;;;;;;27.43;53.68;100085.88;4932536;29;20449;-82
2023/07/12 07:15:17;;;;;;;24.37;12.47;;;;;;;27.41;54.23;100095.66;4927171;29;20452;-81
2023/07/12 07:17:46;;;;;;;12.60;11.40;;;;;;;27.79;53.25;100090.91;4932025;29;20468;-81
2023/07/12 07:20:18;;;;;;;13.43;12.03;;;;;;;27.82;52.98;100106.94;4941135;29;20453;-81
2023/07/12 07:22:48;;;;;;;17.37;10.97;;;;;;;27.65;53.34;100112.59;4924410;29;20464;-79
2023/07/12 07:25:17;;;;;;;12.20;11.10;;;;;;;27.38;53.25;100124.13;4925607;29;20408;-79
2023/07/12 07:27:49;;;;;;;16.47;11.30;;;;;;;27.27;53.83;100136.75;4934848;29;20474;-78
2023/07/12 07:30:20;;;;;;;20.17;12.60;;;;;;;26.83;54.53;100134.03;4951138;28;20449;-77
2023/07/12 07:32:53;;;;;;;11.03;9.70;;;;;;;26.72;54.84;100129.16;4940631;28;20437;-77
2023/07/12 07:35:23;;;;;;;20.43;10.93;;;;;;;26.74;54.55;100143.50;4951863;28;20424;-77
2023/07/12 07:37:52;;;;;;;19.13;11.70;;;;;;;26.38;55.23;100141.06;4943270;28;20457;-79
2023/07/12 07:40:21;;;;;;;12.80;10.97;;;;;;;26.49;55.27;100153.47;4939481;28;20441;-78
2023/07/12 07:42:50;;;;;;;13.33;11.97;;;;;;;26.43;54.84;100145.66;4934468;29;20437;-81
2023/07/12 07:45:21;;;;;;;14.27;12.87;;;;;;;26.37;55.29;100154.13;4926282;29;20430;-80
2023/07/12 07:47:50;;;;;;;13.50;12.30;;;;;;;26.07;55.40;100155.03;4928540;29;20443;-80
2023/07/12 07:50:20;;;;;;;12.63;11.43;;;;;;;26.02;55.64;100151.59;4923302;29;20407;-80
2023/07/12 07:52:52;;;;;;;15.03;13.80;;;;;;;26.06;55.64;100161.69;4921358;29;20540;-80
2023/07/12 07:55:23;;;;;;;14.70;13.30;;;;;;;26.08;55.54;100156.66;4919491;29;20784;-80
2023/07/12 07:57:53;;;;;;;14.13;12.80;;;;;;;26.18;55.74;100158.31;4926388;29;20442;-79
2023/07/12 08:00:23;;;;;;;14.80;13.40;;;;;;;26.60;53.73;100137.31;4925007;29;20441;-80
2023/07/12 08:02:53;;;;;;;11.70;9.80;;;;;;;26.71;52.02;100145.00;4929833;29;20408;-81
2023/07/12 08:05:22;;;;;;;10.90;9.27;;;;;;;26.59;52.01;100149.53;4936391;29;20445;-80
2023/07/12 08:07:51;;;;;;;12.10;9.83;;;;;;;26.42;52.33;100152.34;4926342;29;20458;-80
2023/07/12 08:10:20;;;;;;;10.33;9.33;;;;;;;25.83;53.17;100151.84;4926499;29;20417;-81
2023/07/12 08:12:54;;;;;;;9.53;8.70;;;;;;;25.61;53.50;100160.28;4924812;29;20436;-80
2023/07/12 08:15:34;;;;;;;13.30;11.43;;;;;;;25.53;54.27;100172.91;4933228;29;20492;-81
2023/07/12 08:18:06;;;;;;;9.50;7.87;;;;;;;25.81;53.81;100160.47;4934613;29;20435;-80
2023/07/12 08:20:40;;;;;;;12.50;9.03;;;;;;;26.10;53.12;100179.31;4935367;29;20448;-79
2023/07/12 08:23:10;;;;;;;8.37;7.57;;;;;;;25.81;53.47;100173.53;4940552;29;20690;-81
2023/07/12 08:25:40;;;;;;;8.70;7.80;;;;;;;25.74;53.73;100185.09;4934924;28;20795;-81
2023/07/12 08:28:09;;;;;;;9.87;8.93;;;;;;;26.21;53.21;100180.69;4940526;29;20481;-82
2023/07/12 08:30:44;;;;;;;8.50;7.70;;;;;;;26.52;53.26;100190.84;4942858;29;20843;-83
2023/07/12 08:33:14;;;;;;;9.07;8.17;;;;;;;26.51;51.72;100189.22;4934495;29;20468;-81
2023/07/12 08:35:44;;;;;;;8.10;7.40;;;;;;;26.51;52.78;100178.13;4946260;29;20481;-83
2023/07/12 08:38:19;;;;;;;8.10;6.23;;;;;;;26.18;52.66;100206.28;4932008;29;20461;-82
2023/07/12 08:40:52;;;;;;;6.83;6.23;;;;;;;26.08;52.46;100203.78;4936798;29;20529;-81
2023/07/12 08:43:30;;;;;;;7.63;6.00;;;;;;;26.08;52.70;100198.25;4942897;29;20485;-80
2023/07/12 08:46:09;;;;;;;7.87;7.07;;;;;;;26.01;53.17;100192.34;4944672;29;20460;-81
2023/07/12 08:48:39;;;;;;;7.33;6.63;;;;;;;25.80;54.29;100213.47;4944804;29;20500;-80
2023/07/12 08:51:18;;;;;;;11.10;10.00;;;;;;;25.91;54.49;100195.41;4930455;29;20952;-82
2023/07/12 08:53:48;;;;;;;7.07;6.37;;;;;;;25.85;54.05;100205.03;4926702;29;20499;-82
2023/07/12 08:56:19;;;;;;;7.53;6.83;;;;;;;25.86;54.15;100215.78;4932100;29;20521;-82
2023/07/12 08:58:55;;;;;;;5.90;5.40;;;;;;;25.44;54.60;100210.81;4937229;29;20473;-83
2023/07/12 09:01:47;;;;;;;6.40;5.77;;;;;;;25.63;54.36;100208.66;4929741;29;20489;-83
2023/07/12 09:04:23;;;;;;;8.07;5.80;;;;;;;25.83;54.46;100212.81;4930856;29;20433;-81
2023/07/12 09:06:56;;;;;;;7.90;5.03;;;;;;;25.70;54.40;100219.31;4935742;29;20437;-82
2023/07/12 09:09:27;;;;;;;7.20;6.50;;;;;;;25.90;54.96;100218.75;4926295;29;20445;-82
2023/07/12 09:11:58;;;;;;;4.90;4.50;;;;;;;25.71;54.18;100221.72;4926685;29;20719;-82
2023/07/12 09:14:29;;;;;;;9.90;5.40;;;;;;;25.62;54.95;100207.03;4927865;29;20503;-83
2023/07/12 09:17:03;;;;;;;6.10;5.50;;;;;;;25.99;54.48;100202.13;4946801;29;20423;-82
2023/07/12 09:19:43;;;;;;;8.30;5.43;;;;;;;25.84;54.60;100217.25;4930635;28;20435;-81
2023/07/12 09:22:17;;;;;;;7.03;5.83;;;;;;;26.08;55.16;100214.88;4936314;29;20420;-83
2023/07/12 09:24:54;;;;;;;6.63;5.93;;;;;;;26.39;54.55;100232.28;4923480;29;20443;-83
2023/07/12 09:27:28;;;;;;;5.30;4.80;;;;;;;26.24;54.96;100218.84;4948207;28;20454;-82
2023/07/12 09:30:05;;;;;;;5.13;4.60;;;;;;;26.61;54.74;100227.75;4955158;28;20496;-81
2023/07/12 09:32:42;;;;;;;5.20;4.53;;;;;;;26.93;53.99;100229.25;4945610;29;20444;-82
2023/07/12 09:35:28;;;;;;;5.67;5.10;;;;;;;26.84;53.97;100232.00;4927989;29;20469;-82
2023/07/12 09:38:04;;;;;;;5.40;4.60;;;;;;;26.90;53.29;100225.19;4939941;29;20487;-83
2023/07/12 09:40:39;;;;;;;5.80;4.70;;;;;;;27.47;52.62;100222.97;4951135;29;20498;-82
2023/07/12 09:43:24;;;;;;;5.37;4.77;;;;;;;27.66;52.08;100222.63;4930329;29;20457;-82
2023/07/12 09:46:08;;;;;;;4.40;3.90;;;;;;;27.31;51.28;100223.81;4918206;29;20444;-83
2023/07/12 09:48:50;;;;;;;5.17;4.67;;;;;;;27.56;51.03;100225.75;4910294;29;21003;-82
2023/07/12 09:51:51;;;;;;;5.23;4.83;;;;;;;27.43;51.61;100237.84;4937277;29;20966;-82
2023/07/12 09:54:56;;;;;;;4.70;4.30;;;;;;;26.81;53.21;100249.31;4938932;29;20802;-84
2023/07/12 09:57:47;;;;;;;5.43;4.93;;;;;;;26.52;53.70;100246.34;4929318;28;20480;-86
2023/07/12 10:00:23;;;;;;;7.43;5.20;;;;;;;27.28;53.07;100249.47;4967553;23;20412;-63
2023/07/12 10:03:15;;;;;;;3.53;3.23;;;;;;;27.50;52.08;100254.84;4889798;29;20550;-67
2023/07/12 10:05:51;;;;;;;4.10;3.47;;;;;;;27.31;52.21;100259.94;4891341;29;20442;-69
2023/07/12 10:08:22;;;;;;;6.07;4.60;;;;;;;26.91;52.73;100270.41;4893428;29;20561;-66
2023/07/12 10:10:58;;;;;;;4.87;3.87;;;;;;;27.15;52.65;100285.44;4895034;29;20439;-63
2023/07/12 10:13:40;;;;;;;5.27;4.60;;;;;;;27.09;52.46;100285.94;4895146;29;20426;-66
2023/07/12 10:16:15;;;;;;;5.83;4.33;;;;;;;27.74;51.30;100277.34;4909413;29;20486;-68
2023/07/12 10:18:46;;;;;;;5.70;5.20;;;;;;;28.10;50.66;100261.03;4895441;29;20823;-65
2023/07/12 10:21:21;;;;;;;5.30;4.00;;;;;;;28.43;49.67;100282.66;4893999;29;20438;-65
2023/07/12 10:23:55;;;;;;;4.27;3.87;;;;;;;28.25;49.89;100278.34;4896490;29;20806;-66
2023/07/12 10:26:24;;;;;;;4.80;4.40;;;;;;;28.04;49.77;100276.28;4896472;29;20426;-65
2023/07/12 10:29:00;;;;;;;3.17;2.90;;;;;;;27.84;49.81;100279.78;4898345;29;20425;-65
2023/07/12 10:31:42;;;;;;;6.40;3.23;;;;;;;28.66;47.15;100286.78;4900606;29;20490;-67
2023/07/12 10:34:26;;;;;;;3.80;2.70;;;;;;;28.12;48.18;100287.75;4895707;29;20464;-66
2023/07/12 10:37:05;;;;;;;5.20;3.00;;;;;;;26.97;51.09;100283.78;4898760;29;20844;-69
2023/07/12 10:39:36;;;;;;;2.93;2.30;;;;;;;26.36;52.79;100293.13;4898958;29;20974;-68
2023/07/12 10:42:12;;;;;;;3.47;2.70;;;;;;;26.83;52.50;100286.69;4900936;29;20431;-67
2023/07/12 10:44:47;;;;;;;3.23;2.93;;;;;;;26.92;50.33;100291.47;4900012;29;20413;-66
2023/07/12 10:47:19;;;;;;;2.73;2.53;;;;;;;27.01;50.73;100295.91;4914277;29;20458;-63
2023/07/12 10:49:53;;;;;;;3.50;3.20;;;;;;;27.08;50.61;100293.44;4896482;29;20876;-64
2023/07/12 10:52:30;;;;;;;3.00;2.70;;;;;;;27.80;49.00;100298.28;4913380;29;20425;-66
2023/07/12 10:55:17;;;;;;;4.93;2.97;;;;;;;27.64;48.23;100305.53;4894181;29;20466;-65
2023/07/12 10:57:48;;;;;;;2.97;2.67;;;;;;;27.89;48.02;100299.06;4896951;29;20993;-67
2023/07/12 11:00:29;;;;;;;6.07;2.67;;;;;;;28.18;45.97;100303.91;4898082;29;20498;-67
2023/07/12 11:03:20;;;;;;;4.03;2.03;;;;;;;28.29;46.51;100298.78;4894722;29;20919;-65
2023/07/12 11:06:04;;;;;;;5.20;4.23;;;;;;;28.73;45.15;100305.75;4897053;29;20443;-66
2023/07/12 11:08:53;;;;;;;3.70;3.10;;;;;;;28.93;45.19;100302.19;4889598;29;20934;-67
2023/07/12 11:11:45;;;;;;;4.30;3.90;;;;;;;29.34;44.80;100318.09;4894450;29;20522;-64
2023/07/12 11:14:42;;;;;;;3.70;2.80;;;;;;;29.25;43.06;100320.13;4891666;29;20435;-66
2023/07/12 11:17:17;;;;;;;3.30;3.00;;;;;;;28.52;44.55;100325.19;4892748;29;20477;-66
2023/07/12 11:19:51;;;;;;;3.40;3.00;;;;;;;28.29;44.13;100321.84;4895035;29;20473;-68
2023/07/12 11:22:22;;;;;;;4.13;2.87;;;;;;;27.73;44.89;100327.75;4894881;29;20454;-68
2023/07/12 11:25:01;;;;;;;4.00;3.20;;;;;;;27.50;45.98;100330.69;4894889;29;20417;-64
2023/07/12 11:27:40;;;;;;;3.80;2.30;;;;;;;27.07;46.38;100327.91;4908959;29;20465;-67
2023/07/12 11:30:23;;;;;;;4.70;2.57;;;;;;;27.26;45.24;100327.59;4898620;29;20486;-66
2023/07/12 11:32:58;;;;;;;2.97;2.47;;;;;;;27.59;44.41;100336.28;4896738;29;20474;-68
2023/07/12 11:35:42;;;;;;;7.17;4.47;;;;;;;28.02;43.15;100328.66;4900803;29;20467;-67
2023/07/12 11:38:21;;;;;;;3.77;2.13;;;;;;;27.70;43.23;100328.38;4895479;29;20486;-66
2023/07/12 11:40:55;;;;;;;3.60;2.73;;;;;;;27.21;44.62;100330.53;4895149;29;20525;-65
2023/07/12 11:43:35;;;;;;;3.20;2.40;;;;;;;27.61;44.89;100328.41;4895116;29;20469;-65
2023/07/12 11:46:13;;;;;;;3.80;2.40;;;;;;;27.64;43.55;100325.78;4895310;29;20462;-68